Kaprijke, Belgium
Current Conditions -  °F | °C
As of 3:25 PM on Thursday 29 Jan 2015 (Local Time) from EHFS Reporting Station
Broken Clouds Broken Clouds  
Wind Chill:   Ceiling: 2900
Heat Index:   Visibility: 6mi
Dew Point:   Wind: 20mph
Humidity: 81%   Direction: 220°SW
Pressure: 28.91"   Gusts: NA
Location:  51.22°N, 3.62°E
Report Text: EHFS 291425Z AUTO 22017KT 9999 FEW021/// SCT025/// BKN029///06/03 Q0979
Loading
Personal Weather Stations






























Interactive Weather Map New forecast layout! Learn more

10-Day Weather Forecast

Advertisements
Track Severe Weather on mobile